createdAt,value
2022-11-12T00:01:45.621Z,100991.50
2022-11-12T00:04:14.582Z,100990.78
2022-11-12T00:06:44.587Z,100993.28
2022-11-12T00:09:13.101Z,101000.34
2022-11-12T00:11:41.885Z,101006.56
2022-11-12T00:14:10.481Z,101000.22
2022-11-12T00:16:39.016Z,101002.03
2022-11-12T00:19:07.542Z,101000.22
2022-11-12T00:21:36.076Z,100995.94
2022-11-12T00:24:06.910Z,100997.59
2022-11-12T00:26:35.531Z,101002.84
2022-11-12T00:29:04.176Z,101002.03
2022-11-12T00:31:32.647Z,101001.19
2022-11-12T00:34:01.167Z,100995.09
2022-11-12T00:36:29.721Z,100994.13
2022-11-12T00:38:58.335Z,100996.88
2022-11-12T00:41:28.302Z,101002.97
2022-11-12T00:43:56.998Z,100999.41
2022-11-12T00:46:25.722Z,101004.66
2022-11-12T00:48:54.332Z,101002.97
2022-11-12T00:51:22.873Z,101004.66
2022-11-12T00:53:51.951Z,100997.72
2022-11-12T00:56:20.481Z,100995.09
2022-11-12T00:58:50.466Z,101001.31
2022-11-12T01:01:19.139Z,100996.03
2022-11-12T01:03:47.907Z,100992.47
2022-11-12T01:06:18.133Z,100995.19
2022-11-12T01:08:48.461Z,100989.84
2022-11-12T01:11:20.451Z,100981.94
2022-11-12T01:13:56.056Z,100983.72
2022-11-12T01:16:25.593Z,100980.25
2022-11-12T01:18:56.387Z,100980.25
2022-11-12T01:21:26.240Z,100983.81
2022-11-12T01:23:55.203Z,100974.13
2022-11-12T01:26:24.913Z,100979.41
2022-11-12T01:28:54.822Z,100978.56
2022-11-12T01:31:25.387Z,100981.19
2022-11-12T01:33:56.335Z,100980.34
2022-11-12T01:36:25.652Z,100974.25
2022-11-12T01:38:54.734Z,100984.66
2022-11-12T01:41:25.578Z,100982.16
2022-11-12T01:57:22.082Z,100991.00
2022-11-12T01:59:54.381Z,100987.41
2022-11-12T02:02:23.307Z,100992.75
2022-11-12T02:04:53.071Z,100991.09
2022-11-12T02:07:24.830Z,101003.41
2022-11-12T02:09:54.441Z,101001.59
2022-11-12T02:12:42.240Z,100999.94
2022-11-12T02:15:11.420Z,101004.34
2022-11-12T02:17:40.330Z,101005.19
2022-11-12T02:20:12.211Z,101012.25
2022-11-12T02:22:42.141Z,101002.66
2022-11-12T02:25:14.361Z,101004.44
2022-11-12T02:27:42.930Z,101002.66
2022-11-12T02:30:12.530Z,101005.28
2022-11-12T02:32:41.081Z,101000.88
2022-11-12T02:35:09.969Z,101001.81
2022-11-12T02:37:38.504Z,100994.75
2022-11-12T02:40:10.259Z,100994.88
2022-11-12T02:42:38.709Z,100994.03
2022-11-12T02:45:08.039Z,100998.34
2022-11-12T02:47:36.540Z,100994.03
2022-11-12T02:50:05.251Z,100995.81
2022-11-12T02:52:33.759Z,100994.97
2022-11-12T02:55:02.452Z,100989.69
2022-11-12T02:57:32.389Z,100989.69
2022-11-12T03:00:00.860Z,100983.59
2022-11-12T03:02:29.440Z,100980.97
2022-11-12T03:04:57.901Z,100972.25
2022-11-12T03:07:26.430Z,100974.03
2022-11-12T03:09:54.950Z,100971.41
2022-11-12T03:12:23.409Z,100964.34
2022-11-12T03:14:53.305Z,100962.69
2022-11-12T03:17:21.820Z,100962.69
2022-11-12T03:19:50.312Z,100958.34
2022-11-12T03:22:18.813Z,100954.88
2022-11-12T03:24:47.330Z,100954.88
2022-11-12T03:27:15.789Z,100943.53
2022-11-12T03:29:44.239Z,100953.31
2022-11-12T03:32:14.220Z,100952.38
2022-11-12T03:34:42.700Z,100944.50
2022-11-12T03:37:11.284Z,100947.13
2022-11-12T03:39:39.819Z,100944.56
2022-11-12T03:42:08.331Z,100948.03
2022-11-12T03:44:36.821Z,100946.38
2022-11-12T03:47:05.339Z,100941.09
2022-11-12T03:49:35.243Z,100941.09
2022-11-12T03:52:03.691Z,100943.75
2022-11-12T03:54:32.230Z,100941.22
2022-11-12T03:57:00.673Z,100947.31
2022-11-12T03:59:29.113Z,100956.03
2022-11-12T04:01:57.692Z,100954.38
2022-11-12T04:04:46.490Z,100956.03
2022-11-12T04:07:33.792Z,100963.94
2022-11-12T04:10:02.253Z,100964.88
2022-11-12T04:12:48.091Z,100965.72
2022-11-12T04:15:16.731Z,100964.88
2022-11-12T04:18:02.375Z,100970.16
2022-11-12T04:21:02.380Z,100966.66
2022-11-12T04:23:32.341Z,100963.19
2022-11-12T04:26:18.383Z,100963.19
2022-11-12T04:29:08.520Z,100955.41
2022-11-12T04:31:35.931Z,100957.09
2022-11-12T04:34:19.336Z,100946.56
2022-11-12T04:36:48.036Z,100947.53
2022-11-12T04:39:18.386Z,100949.31
2022-11-12T04:42:04.200Z,100939.72
2022-11-12T04:44:49.811Z,100931.00
2022-11-12T04:47:18.382Z,100934.47
2022-11-12T04:49:46.882Z,100937.94
2022-11-12T04:52:15.838Z,100932.78
2022-11-12T04:54:46.191Z,100937.09
2022-11-12T04:57:14.656Z,100934.59
2022-11-12T04:59:44.830Z,100937.22
2022-11-12T05:02:13.375Z,100940.81
2022-11-12T05:04:41.817Z,100939.09
2022-11-12T05:07:10.607Z,100941.72
2022-11-12T05:09:39.845Z,100932.06
2022-11-12T05:12:09.874Z,100942.56
2022-11-12T05:14:38.470Z,100943.44
2022-11-12T05:17:07.347Z,100944.28
2022-11-12T05:19:36.396Z,100947.00
2022-11-12T05:22:06.458Z,100946.16
2022-11-12T05:24:42.320Z,100954.88
2022-11-12T05:27:14.563Z,100951.41
2022-11-12T05:29:43.856Z,100947.00
2022-11-12T05:32:13.536Z,100939.22
2022-11-12T05:34:42.316Z,100945.41
2022-11-12T05:37:13.017Z,100942.78
2022-11-12T05:39:41.515Z,100938.38
2022-11-12T05:42:13.437Z,100948.91
2022-11-12T05:44:42.746Z,100946.28
2022-11-12T05:47:11.196Z,100938.38
2022-11-12T05:49:39.645Z,100936.69
2022-11-12T05:52:08.175Z,100936.69
2022-11-12T05:54:36.624Z,100935.00
2022-11-12T05:57:05.519Z,100935.84
2022-11-12T05:59:36.305Z,100937.63
2022-11-12T06:02:04.808Z,100935.00
2022-11-12T06:04:33.414Z,100935.00
2022-11-12T06:07:04.409Z,100933.34
2022-11-12T06:09:32.934Z,100931.63
2022-11-12T06:12:02.675Z,100929.84
2022-11-12T06:14:31.255Z,100935.97
2022-11-12T06:17:01.205Z,100925.53
2022-11-12T06:19:29.656Z,100923.84
2022-11-12T06:21:58.168Z,100924.69
2022-11-12T06:24:34.693Z,100921.31
2022-11-12T06:27:03.935Z,100919.66
2022-11-12T06:29:32.349Z,100915.34
2022-11-12T06:32:02.235Z,100910.16
2022-11-12T06:34:30.724Z,100907.53
2022-11-12T06:36:59.515Z,100903.25
2022-11-12T06:39:27.975Z,100904.91
2022-11-12T06:41:56.484Z,100904.06
2022-11-12T06:44:24.914Z,100889.25
2022-11-12T06:46:53.385Z,100891.91
2022-11-12T06:49:23.346Z,100881.38
2022-11-12T06:51:52.489Z,100894.53
2022-11-12T06:54:20.997Z,100884.06
2022-11-12T06:56:49.526Z,100873.56
2022-11-12T06:59:18.125Z,100877.13
2022-11-12T07:01:47.239Z,100871.03
2022-11-12T07:04:16.427Z,100863.03
2022-11-12T07:06:46.442Z,100870.09
2022-11-12T07:09:15.036Z,100868.41
2022-11-12T07:11:44.136Z,100874.59
2022-11-12T07:14:13.361Z,100874.72
2022-11-12T07:16:42.011Z,100875.56
2022-11-12T07:19:11.242Z,100893.94
2022-11-12T07:21:39.853Z,100889.66
2022-11-12T07:24:10.857Z,100898.38
2022-11-12T07:26:43.210Z,100902.78
2022-11-12T07:29:29.970Z,100915.09
2022-11-12T07:32:04.630Z,100916.84
2022-11-12T07:34:33.155Z,100916.84
2022-11-12T07:37:01.856Z,100924.72
2022-11-12T07:39:31.975Z,100919.59
2022-11-12T07:42:00.498Z,100922.22
2022-11-12T07:44:28.936Z,100929.28
2022-11-12T07:46:57.416Z,100934.53
2022-11-12T07:49:25.937Z,100923.25
2022-11-12T07:51:54.446Z,100936.41
2022-11-12T07:54:22.966Z,100951.22
2022-11-12T07:56:52.925Z,100959.09
2022-11-12T07:59:21.656Z,100966.16
2022-11-12T08:01:50.389Z,100968.91
2022-11-12T08:04:19.036Z,100971.53
2022-11-12T08:06:47.597Z,100968.06
2022-11-12T08:09:16.496Z,100979.50
2022-11-12T08:11:44.977Z,100982.13
2022-11-12T08:14:14.924Z,100975.06
2022-11-12T08:16:43.477Z,100990.84
2022-11-12T08:19:11.956Z,100997.88
2022-11-12T08:21:40.436Z,101002.31
2022-11-12T08:24:09.671Z,101000.53
2022-11-12T08:26:38.136Z,100997.16
2022-11-12T08:29:08.538Z,101000.63
2022-11-12T08:31:38.989Z,100997.16
2022-11-12T08:34:16.235Z,101000.63
2022-11-12T08:36:48.547Z,100993.66
2022-11-12T08:39:17.926Z,101001.56
2022-11-12T08:41:46.416Z,101001.56
2022-11-12T08:44:14.986Z,100999.88
2022-11-12T08:46:44.896Z,101003.34
2022-11-12T08:49:13.360Z,101005.97
2022-11-12T08:51:41.896Z,101008.59
2022-11-12T08:54:10.364Z,101009.56
2022-11-12T08:56:39.165Z,101009.16
2022-11-12T08:59:07.787Z,101008.69
2022-11-12T09:01:36.443Z,101008.84
2022-11-12T09:04:06.697Z,101002.50
2022-11-12T09:06:35.364Z,101002.03
2022-11-12T09:09:05.856Z,101000.56
2022-11-12T09:11:34.476Z,100999.59
2022-11-12T09:14:03.101Z,101006.72
2022-11-12T09:16:31.776Z,101006.84
2022-11-12T09:19:00.346Z,101013.00
2022-11-12T09:21:30.477Z,101005.31
2022-11-12T09:23:59.427Z,101011.31
2022-11-12T09:26:28.063Z,101006.06
2022-11-12T09:28:56.743Z,101005.31
2022-11-12T09:31:25.930Z,101012.47
2022-11-12T09:33:57.481Z,101002.00
2022-11-12T09:36:26.106Z,101018.78
2022-11-12T09:38:56.106Z,101004.81
2022-11-12T09:41:30.798Z,101009.22
2022-11-12T09:44:03.566Z,101018.13
2022-11-12T09:46:40.617Z,101019.06
2022-11-12T09:49:17.237Z,101010.44
2022-11-12T09:51:51.642Z,101014.78
2022-11-12T09:54:28.188Z,101021.69
2022-11-12T09:56:57.761Z,101013.06
2022-11-12T09:59:31.416Z,101013.94
2022-11-12T10:02:06.885Z,101009.59
2022-11-12T10:05:05.516Z,101012.22
2022-11-12T10:07:48.086Z,100999.22
2022-11-12T10:10:25.456Z,101001.84
2022-11-12T10:13:10.689Z,100997.50
2022-11-12T10:16:16.982Z,100990.41
2022-11-12T10:19:03.217Z,100988.72
2022-11-12T10:21:47.846Z,100982.63
2022-11-12T10:24:16.346Z,100995.56
2022-11-12T10:26:47.317Z,100988.81
2022-11-12T10:29:36.126Z,100984.59
2022-11-12T10:32:05.389Z,100993.31
2022-11-12T10:34:36.306Z,100990.78
2022-11-12T10:37:08.286Z,100983.84
2022-11-12T10:39:39.381Z,100977.78
2022-11-12T10:42:12.446Z,100974.28
2022-11-12T10:44:42.686Z,100977.84
2022-11-12T10:47:27.417Z,100978.78
2022-11-12T10:50:07.566Z,100983.09
2022-11-12T10:52:36.815Z,100987.59
2022-11-12T10:55:08.636Z,100985.06
2022-11-12T10:57:38.576Z,100973.75
2022-11-12T11:00:19.786Z,100979.81
2022-11-12T11:02:50.795Z,100976.44
2022-11-12T11:05:35.675Z,100970.34
2022-11-12T11:08:05.035Z,100978.34
2022-11-12T11:10:36.079Z,100973.91
2022-11-12T11:13:21.067Z,100979.16
2022-11-12T11:16:01.936Z,100965.09
2022-11-12T11:18:32.251Z,100967.91
2022-11-12T11:21:10.245Z,100963.25
2022-11-12T11:23:47.274Z,100953.28
2022-11-12T11:26:29.097Z,100954.69
2022-11-12T11:29:10.453Z,100944.13
2022-11-12T11:31:47.786Z,100949.63
2022-11-12T11:34:29.196Z,100948.41
2022-11-12T11:37:08.136Z,100948.78
2022-11-12T11:39:45.565Z,100947.00
2022-11-12T11:42:29.818Z,100948.78
2022-11-12T11:45:08.276Z,100936.50
2022-11-12T11:48:00.673Z,100927.78
2022-11-12T11:50:33.975Z,100917.28
2022-11-12T11:53:23.006Z,100918.13
2022-11-12T11:55:56.451Z,100912.72
2022-11-12T11:58:59.998Z,100916.25
2022-11-12T12:01:39.495Z,100915.38
2022-11-12T12:04:28.487Z,100902.28
2022-11-12T12:07:10.361Z,100901.44
2022-11-12T12:09:46.411Z,100899.59
2022-11-12T12:12:26.570Z,100885.31
2022-11-12T12:15:06.541Z,100875.78
2022-11-12T12:17:57.572Z,100873.16
2022-11-12T12:20:34.125Z,100863.84
2022-11-12T12:23:06.690Z,100863.94
2022-11-12T12:25:39.960Z,100851.13
2022-11-12T12:28:17.075Z,100853.84
2022-11-12T12:30:50.218Z,100854.06
2022-11-12T12:33:31.417Z,100856.47
2022-11-12T12:36:04.447Z,100853.84
2022-11-12T12:38:39.660Z,100852.16
2022-11-12T12:41:16.550Z,100848.59
2022-11-12T12:43:50.402Z,100857.50
2022-11-12T12:46:22.761Z,100855.72
2022-11-12T12:48:55.386Z,100853.09
2022-11-12T12:51:24.555Z,100856.69
2022-11-12T12:53:53.277Z,100853.19
2022-11-12T12:56:47.455Z,100852.25
2022-11-12T12:59:22.255Z,100838.31
2022-11-12T13:01:58.931Z,100832.94
2022-11-12T13:04:54.637Z,100819.06
2022-11-12T13:07:42.081Z,100811.31
2022-11-12T13:10:47.231Z,100805.13
2022-11-12T13:13:32.445Z,100806.06
2022-11-12T13:16:03.301Z,100799.16
2022-11-12T13:19:02.437Z,100797.34
2022-11-12T13:21:32.591Z,100798.19
2022-11-12T13:24:09.989Z,100789.50
2022-11-12T13:26:58.486Z,100789.38
2022-11-12T13:29:44.215Z,100783.41
2022-11-12T13:32:34.850Z,100776.44
2022-11-12T13:35:31.406Z,100777.28
2022-11-12T13:38:04.769Z,100767.66
2022-11-12T13:40:47.637Z,100767.66
2022-11-12T13:43:35.176Z,100765.13
2022-11-12T13:46:34.807Z,100764.28
2022-11-12T13:49:07.486Z,100762.50
2022-11-12T13:51:41.095Z,100763.88
2022-11-12T13:54:46.556Z,100763.34
2022-11-12T13:57:28.136Z,100770.38
2022-11-12T14:00:30.533Z,100773.81
2022-11-12T14:03:03.028Z,100765.31
2022-11-12T14:05:33.385Z,100769.72
2022-11-12T14:08:15.476Z,100769.72
2022-11-12T14:10:57.526Z,100772.25
2022-11-12T14:13:49.346Z,100765.22
2022-11-12T14:16:31.238Z,100766.06
2022-11-12T14:19:33.342Z,100773.09
2022-11-12T14:22:03.676Z,100769.72
2022-11-12T14:24:34.692Z,100769.53
2022-11-12T14:27:04.716Z,100770.47
2022-11-12T14:29:36.850Z,100762.69
2022-11-12T14:32:11.208Z,100758.41
2022-11-12T14:34:39.762Z,100769.72
2022-11-12T14:37:26.278Z,100767.09
2022-11-12T14:39:54.886Z,100763.72
2022-11-12T14:42:28.688Z,100763.53
2022-11-12T14:44:57.227Z,100762.59
2022-11-12T14:47:25.756Z,100760.06
2022-11-12T14:49:54.398Z,100760.19
2022-11-12T14:52:28.527Z,100757.38
2022-11-12T14:55:01.626Z,100764.47
2022-11-12T14:57:33.053Z,100766.16
2022-11-12T15:00:19.111Z,100760.91
2022-11-12T15:02:58.834Z,100762.59
2022-11-12T15:05:28.600Z,100765.00
2022-11-12T15:07:59.342Z,100760.66
2022-11-12T15:10:37.275Z,100759.00
2022-11-12T15:13:10.194Z,100758.16
2022-11-12T15:15:41.100Z,100766.22
2022-11-12T15:18:18.142Z,100763.59
2022-11-12T15:20:47.095Z,100752.91
2022-11-12T15:23:19.431Z,100750.16
2022-11-12T15:25:48.042Z,100744.44
2022-11-12T15:28:24.241Z,100742.31
2022-11-12T15:31:03.653Z,100741.78
2022-11-12T15:33:32.322Z,100734.00
2022-11-12T15:36:02.888Z,100730.53
2022-11-12T15:38:36.371Z,100729.59
2022-11-12T15:41:05.484Z,100725.38
2022-11-12T15:43:42.804Z,100711.41
2022-11-12T15:46:15.521Z,100716.78
2022-11-12T15:48:44.422Z,100714.16
2022-11-12T15:51:14.192Z,100715.09
2022-11-12T15:53:43.232Z,100713.41
2022-11-12T15:56:16.271Z,100710.78
2022-11-12T15:58:47.211Z,100709.88
2022-11-12T16:01:15.817Z,100708.16
2022-11-12T16:03:44.682Z,100703.88
2022-11-12T16:06:14.070Z,100704.81
2022-11-12T16:08:42.581Z,100706.50
2022-11-12T16:11:32.266Z,100713.53
2022-11-12T16:14:02.412Z,100719.22
2022-11-12T16:16:31.232Z,100709.78
2022-11-12T16:18:59.806Z,100710.13
2022-11-12T16:21:28.551Z,100706.34
2022-11-12T16:23:57.146Z,100708.56
2022-11-12T16:26:30.541Z,100701.34
2022-11-12T16:29:00.151Z,100710.25
2022-11-12T16:31:30.050Z,100696.09
2022-11-12T16:33:58.641Z,100697.97
2022-11-12T16:36:27.167Z,100688.75
2022-11-12T16:38:55.682Z,100686.84
2022-11-12T16:41:24.171Z,100702.38
2022-11-12T16:43:53.503Z,100694.28
2022-11-12T16:46:28.341Z,100694.28
2022-11-12T16:48:58.693Z,100698.59
2022-11-12T16:51:27.561Z,100695.13
2022-11-12T16:53:56.371Z,100695.88
2022-11-12T16:56:30.386Z,100694.09
2022-11-12T16:58:59.001Z,100701.78
2022-11-12T17:01:29.610Z,100700.38
2022-11-12T17:04:00.511Z,100705.13
2022-11-12T17:06:37.884Z,100700.69
2022-11-12T17:09:07.917Z,100702.97
2022-11-12T17:11:38.993Z,100705.84
2022-11-12T17:14:08.231Z,100701.75
2022-11-12T17:16:38.012Z,100696.28
2022-11-12T17:19:08.321Z,100695.03
2022-11-12T17:21:37.131Z,100700.34
2022-11-12T17:24:06.311Z,100701.84
2022-11-12T17:26:34.785Z,100704.47
2022-11-12T17:31:38.971Z,100701.31
2022-11-12T17:34:09.141Z,100698.47
2022-11-12T17:36:43.721Z,100709.72
2022-11-12T17:39:13.741Z,100707.31
2022-11-12T17:41:42.426Z,100708.47
2022-11-12T17:44:16.686Z,100702.16
2022-11-12T17:46:45.400Z,100707.22
2022-11-12T17:49:56.871Z,100710.63
2022-11-12T17:52:27.672Z,100709.09
2022-11-12T18:10:05.714Z,100698.41
2022-11-12T18:12:34.186Z,100704.34
2022-11-12T18:15:02.663Z,100706.00
2022-11-12T18:17:31.257Z,100706.00
2022-11-12T18:19:59.736Z,100705.03
2022-11-12T18:22:28.322Z,100709.47
2022-11-12T18:24:56.887Z,100706.44
2022-11-12T18:27:32.201Z,100717.97
2022-11-12T18:30:03.808Z,100708.31
2022-11-12T18:32:33.032Z,100702.53
2022-11-12T18:35:02.241Z,100697.38
2022-11-12T18:37:32.131Z,100702.81
2022-11-12T18:40:01.465Z,100696.34
2022-11-12T18:42:34.443Z,100705.00
2022-11-12T18:45:03.463Z,100706.66
2022-11-12T18:47:32.335Z,100701.53
2022-11-12T18:50:05.516Z,100707.63
2022-11-12T18:52:36.813Z,100703.84
2022-11-12T18:55:06.023Z,100693.16
2022-11-12T18:57:35.951Z,100695.09
2022-11-12T19:00:04.942Z,100693.84
2022-11-12T19:02:33.712Z,100695.84
2022-11-12T19:05:02.232Z,100701.19
2022-11-12T19:07:36.512Z,100698.00
2022-11-12T19:10:14.623Z,100702.34
2022-11-12T19:12:45.021Z,100694.34
2022-11-12T19:15:13.631Z,100696.13
2022-11-12T19:17:43.033Z,100692.56
2022-11-12T19:20:13.472Z,100679.56
2022-11-12T19:22:41.959Z,100682.28
2022-11-12T19:25:11.012Z,100684.06
2022-11-12T19:27:39.511Z,100683.63
2022-11-12T19:30:11.793Z,100674.84
2022-11-12T19:32:40.363Z,100667.78
2022-11-12T19:35:09.859Z,100674.44
2022-11-12T19:37:38.642Z,100667.25
2022-11-12T19:40:08.655Z,100656.25
2022-11-12T20:10:49.332Z,100633.75
2022-11-12T20:13:18.367Z,100646.16
2022-11-12T20:15:46.887Z,100633.66
2022-11-12T20:18:17.466Z,100637.06
2022-11-12T20:20:59.691Z,100637.06
2022-11-12T20:23:28.638Z,100646.75
2022-11-12T20:32:56.121Z,100643.66
2022-11-12T20:35:24.662Z,100647.63
2022-11-12T20:37:53.561Z,100639.72
2022-11-12T20:40:22.338Z,100640.81
2022-11-12T20:42:52.662Z,100643.16
2022-11-12T20:45:21.261Z,100646.84
2022-11-12T20:47:49.893Z,100642.53
2022-11-12T20:50:18.922Z,100642.69
2022-11-12T20:52:47.401Z,100644.94
2022-11-12T20:55:16.071Z,100642.53
2022-11-12T20:57:44.641Z,100638.72
2022-11-12T21:00:21.373Z,100634.38
2022-11-12T21:02:52.362Z,100634.81
2022-11-12T21:05:21.461Z,100634.91
2022-11-12T21:07:50.266Z,100626.53
2022-11-12T21:10:19.021Z,100631.28
2022-11-12T21:12:48.127Z,100628.66
2022-11-12T21:15:18.760Z,100619.25
2022-11-12T21:17:51.457Z,100601.84
2022-11-12T21:20:19.971Z,100600.84
2022-11-12T21:22:48.610Z,100608.75
2022-11-12T21:25:17.601Z,100610.03
2022-11-12T21:27:47.302Z,100605.72
2022-11-12T21:30:18.670Z,100600.69
2022-11-12T21:32:48.876Z,100607.75
2022-11-12T21:35:19.821Z,100596.50
2022-11-12T21:37:49.663Z,100607.84
2022-11-12T21:40:18.532Z,100606.28
2022-11-12T21:42:50.331Z,100604.50
2022-11-12T21:45:22.345Z,100601.97
2022-11-12T21:47:52.596Z,100595.16
2022-11-12T21:50:29.876Z,100593.47
2022-11-12T21:56:19.821Z,100595.44
2022-11-12T22:07:43.596Z,100575.41
2022-11-12T22:10:52.051Z,100566.09
2022-11-12T22:20:59.941Z,100529.94
2022-11-12T22:23:33.871Z,100535.94
2022-11-12T22:26:04.372Z,100539.56
2022-11-12T22:28:36.022Z,100538.81
2022-11-12T22:31:09.032Z,100537.97
2022-11-12T22:33:39.021Z,100532.44
2022-11-12T22:36:10.812Z,100536.47
2022-11-12T22:38:43.607Z,100536.84
2022-11-12T22:41:15.146Z,100535.03
2022-11-12T22:43:49.302Z,100531.97
2022-11-12T22:46:21.702Z,100526.72
2022-11-12T22:48:50.292Z,100536.34
2022-11-12T22:51:20.501Z,100528.81
2022-11-12T22:53:55.395Z,100523.31
2022-11-12T22:56:24.833Z,100532.88
2022-11-12T22:58:53.777Z,100535.41
2022-11-12T23:01:34.557Z,100535.56
2022-11-12T23:04:05.526Z,100538.69
2022-11-12T23:06:35.101Z,100539.84
2022-11-12T23:09:08.071Z,100546.06
2022-11-12T23:11:38.542Z,100548.69
2022-11-12T23:14:07.038Z,100533.47
2022-11-12T23:16:36.136Z,100534.44
2022-11-12T23:19:08.191Z,100533.69
2022-11-12T23:21:37.061Z,100527.16
2022-11-12T23:24:10.368Z,100521.53
2022-11-12T23:26:41.237Z,100521.94
2022-11-12T23:29:12.392Z,100514.03
2022-11-12T23:31:41.196Z,100509.72
2022-11-12T23:34:16.012Z,100506.38
2022-11-12T23:36:44.956Z,100508.88
2022-11-12T23:39:14.891Z,100511.50
2022-11-12T23:41:43.376Z,100500.16
2022-11-12T23:44:12.022Z,100493.22
2022-11-12T23:46:43.166Z,100498.34
2022-11-12T23:49:12.032Z,100500.25
2022-11-12T23:51:41.480Z,100496.78
2022-11-12T23:54:11.838Z,100489.88
2022-11-12T23:56:42.320Z,100483.78
2022-11-12T23:59:10.935Z,100489.13
